sensor_id;sensor_type;location;lat;lon;timestamp;P1;durP1;ratioP1;P2;durP2;ratioP2
801;SDS011;383;48.766;9.270;2024-03-23T00:52:34;13.48;;;5.85;;
801;SDS011;383;48.766;9.270;2024-03-23T00:55:01;7.78;;;4.57;;
801;SDS011;383;48.766;9.270;2024-03-23T00:57:27;8.67;;;5.27;;
801;SDS011;383;48.766;9.270;2024-03-23T00:59:53;13.93;;;5.22;;
801;SDS011;383;48.766;9.270;2024-03-23T01:02:19;8.53;;;5.63;;
801;SDS011;383;48.766;9.270;2024-03-23T01:04:46;9.60;;;5.25;;
801;SDS011;383;48.766;9.270;2024-03-23T01:07:11;12.33;;;5.00;;
801;SDS011;383;48.766;9.270;2024-03-23T01:09:39;8.23;;;5.75;;
801;SDS011;383;48.766;9.270;2024-03-23T01:12:05;10.20;;;5.80;;
801;SDS011;383;48.766;9.270;2024-03-23T01:14:32;9.07;;;5.28;;
801;SDS011;383;48.766;9.270;2024-03-23T01:16:58;12.53;;;6.20;;
801;SDS011;383;48.766;9.270;2024-03-23T01:19:24;10.18;;;5.03;;
801;SDS011;383;48.766;9.270;2024-03-23T01:21:50;9.87;;;6.07;;
801;SDS011;383;48.766;9.270;2024-03-23T01:24:16;9.02;;;5.53;;
801;SDS011;383;48.766;9.270;2024-03-23T01:26:43;9.73;;;5.90;;
801;SDS011;383;48.766;9.270;2024-03-23T01:29:10;9.40;;;5.18;;
801;SDS011;383;48.766;9.270;2024-03-23T01:31:36;10.60;;;5.77;;
801;SDS011;383;48.766;9.270;2024-03-23T01:34:03;9.48;;;5.60;;
801;SDS011;383;48.766;9.270;2024-03-23T01:36:28;11.20;;;5.73;;
801;SDS011;383;48.766;9.270;2024-03-23T01:38:55;13.55;;;7.35;;
801;SDS011;383;48.766;9.270;2024-03-23T01:41:21;16.47;;;8.03;;
801;SDS011;383;48.766;9.270;2024-03-23T01:43:49;14.60;;;7.65;;
801;SDS011;383;48.766;9.270;2024-03-23T01:46:14;14.65;;;7.13;;
801;SDS011;383;48.766;9.270;2024-03-23T01:48:41;15.38;;;6.68;;
801;SDS011;383;48.766;9.270;2024-03-23T01:51:07;12.97;;;6.37;;
801;SDS011;383;48.766;9.270;2024-03-23T01:53:34;17.27;;;6.85;;
801;SDS011;383;48.766;9.270;2024-03-23T01:56:00;10.53;;;5.67;;
801;SDS011;383;48.766;9.270;2024-03-23T01:58:28;9.20;;;5.68;;
801;SDS011;383;48.766;9.270;2024-03-23T02:00:55;12.23;;;5.67;;
801;SDS011;383;48.766;9.270;2024-03-23T02:03:23;9.43;;;4.88;;
801;SDS011;383;48.766;9.270;2024-03-23T02:05:49;9.68;;;5.57;;
801;SDS011;383;48.766;9.270;2024-03-23T02:08:17;10.70;;;5.93;;
801;SDS011;383;48.766;9.270;2024-03-23T02:10:44;9.77;;;5.43;;
801;SDS011;383;48.766;9.270;2024-03-23T02:13:11;7.30;;;5.18;;
801;SDS011;383;48.766;9.270;2024-03-23T02:15:38;11.02;;;5.20;;
801;SDS011;383;48.766;9.270;2024-03-23T02:18:06;11.30;;;5.47;;
801;SDS011;383;48.766;9.270;2024-03-23T02:20:32;10.02;;;5.40;;
801;SDS011;383;48.766;9.270;2024-03-23T02:23:00;10.98;;;4.85;;
801;SDS011;383;48.766;9.270;2024-03-23T02:25:26;14.85;;;6.57;;
801;SDS011;383;48.766;9.270;2024-03-23T02:27:53;15.18;;;7.18;;
801;SDS011;383;48.766;9.270;2024-03-23T02:30:19;10.90;;;4.97;;
801;SDS011;383;48.766;9.270;2024-03-23T02:35:55;28.55;;;6.50;;
801;SDS011;383;48.766;9.270;2024-03-23T02:38:23;7.72;;;4.78;;
801;SDS011;383;48.766;9.270;2024-03-23T02:40:49;8.57;;;4.20;;
801;SDS011;383;48.766;9.270;2024-03-23T02:43:16;9.55;;;5.13;;
801;SDS011;383;48.766;9.270;2024-03-23T02:45:41;9.30;;;5.77;;
801;SDS011;383;48.766;9.270;2024-03-23T02:48:08;11.20;;;6.22;;
801;SDS011;383;48.766;9.270;2024-03-23T02:50:34;11.23;;;6.10;;
801;SDS011;383;48.766;9.270;2024-03-23T02:53:01;11.10;;;5.80;;
801;SDS011;383;48.766;9.270;2024-03-23T02:55:28;6.97;;;5.53;;
801;SDS011;383;48.766;9.270;2024-03-23T02:57:55;6.10;;;4.30;;
801;SDS011;383;48.766;9.270;2024-03-23T03:00:20;7.30;;;3.77;;
801;SDS011;383;48.766;9.270;2024-03-23T03:02:47;6.93;;;4.32;;
801;SDS011;383;48.766;9.270;2024-03-23T03:05:13;6.77;;;4.27;;
801;SDS011;383;48.766;9.270;2024-03-23T03:07:39;12.23;;;4.88;;
801;SDS011;383;48.766;9.270;2024-03-23T03:10:06;7.15;;;4.43;;
801;SDS011;383;48.766;9.270;2024-03-23T03:12:37;9.35;;;5.15;;
801;SDS011;383;48.766;9.270;2024-03-23T03:15:03;5.75;;;3.90;;
801;SDS011;383;48.766;9.270;2024-03-23T03:17:30;11.48;;;5.65;;
801;SDS011;383;48.766;9.270;2024-03-23T03:19:56;10.97;;;5.63;;
801;SDS011;383;48.766;9.270;2024-03-23T03:22:23;11.80;;;5.50;;
801;SDS011;383;48.766;9.270;2024-03-23T03:24:49;8.23;;;5.60;;
801;SDS011;383;48.766;9.270;2024-03-23T03:27:15;12.23;;;5.60;;
801;SDS011;383;48.766;9.270;2024-03-23T03:29:42;14.87;;;5.80;;
801;SDS011;383;48.766;9.270;2024-03-23T03:32:09;7.50;;;4.93;;
801;SDS011;383;48.766;9.270;2024-03-23T03:34:35;6.30;;;4.23;;
801;SDS011;383;48.766;9.270;2024-03-23T03:37:01;7.22;;;4.75;;
801;SDS011;383;48.766;9.270;2024-03-23T03:39:27;10.50;;;4.93;;
801;SDS011;383;48.766;9.270;2024-03-23T03:41:53;9.60;;;5.45;;
801;SDS011;383;48.766;9.270;2024-03-23T03:44:19;11.07;;;5.93;;
801;SDS011;383;48.766;9.270;2024-03-23T03:46:47;11.95;;;5.00;;
801;SDS011;383;48.766;9.270;2024-03-23T03:49:13;10.15;;;5.43;;
801;SDS011;383;48.766;9.270;2024-03-23T03:51:40;10.32;;;5.50;;
801;SDS011;383;48.766;9.270;2024-03-23T03:54:06;9.90;;;5.77;;
801;SDS011;383;48.766;9.270;2024-03-23T03:56:32;8.70;;;5.50;;
801;SDS011;383;48.766;9.270;2024-03-23T03:58:58;11.43;;;5.07;;
801;SDS011;383;48.766;9.270;2024-03-23T04:01:25;10.95;;;5.05;;
801;SDS011;383;48.766;9.270;2024-03-23T04:03:52;11.17;;;5.43;;
801;SDS011;383;48.766;9.270;2024-03-23T04:06:18;11.98;;;4.90;;
801;SDS011;383;48.766;9.270;2024-03-23T04:08:44;8.25;;;4.32;;
801;SDS011;383;48.766;9.270;2024-03-23T04:11:11;8.57;;;4.70;;
801;SDS011;383;48.766;9.270;2024-03-23T04:13:37;14.70;;;4.53;;
801;SDS011;383;48.766;9.270;2024-03-23T04:16:06;9.50;;;4.53;;
801;SDS011;383;48.766;9.270;2024-03-23T04:18:32;13.07;;;5.67;;
801;SDS011;383;48.766;9.270;2024-03-23T04:21:00;10.40;;;6.18;;
801;SDS011;383;48.766;9.270;2024-03-23T04:23:26;10.70;;;5.30;;
801;SDS011;383;48.766;9.270;2024-03-23T04:25:52;13.07;;;7.60;;
801;SDS011;383;48.766;9.270;2024-03-23T04:28:18;11.73;;;5.53;;
801;SDS011;383;48.766;9.270;2024-03-23T04:30:45;15.45;;;6.72;;
801;SDS011;383;48.766;9.270;2024-03-23T04:33:10;9.97;;;5.60;;
801;SDS011;383;48.766;9.270;2024-03-23T04:35:37;13.63;;;6.78;;
801;SDS011;383;48.766;9.270;2024-03-23T04:38:04;11.27;;;6.00;;
801;SDS011;383;48.766;9.270;2024-03-23T04:40:31;10.38;;;5.68;;
801;SDS011;383;48.766;9.270;2024-03-23T04:42:57;14.57;;;6.80;;
801;SDS011;383;48.766;9.270;2024-03-23T04:45:25;10.68;;;6.80;;
801;SDS011;383;48.766;9.270;2024-03-23T04:47:52;8.98;;;4.93;;
801;SDS011;383;48.766;9.270;2024-03-23T04:50:19;10.93;;;5.22;;
801;SDS011;383;48.766;9.270;2024-03-23T04:52:45;7.10;;;3.80;;
801;SDS011;383;48.766;9.270;2024-03-23T04:55:13;9.02;;;4.00;;
801;SDS011;383;48.766;9.270;2024-03-23T04:57:40;3.83;;;3.08;;
801;SDS011;383;48.766;9.270;2024-03-23T05:00:07;12.52;;;4.18;;
801;SDS011;383;48.766;9.270;2024-03-23T05:02:42;4.85;;;3.90;;
801;SDS011;383;48.766;9.270;2024-03-23T05:05:09;11.27;;;5.28;;
801;SDS011;383;48.766;9.270;2024-03-23T05:07:35;8.23;;;4.50;;
801;SDS011;383;48.766;9.270;2024-03-23T05:10:01;8.63;;;5.25;;
801;SDS011;383;48.766;9.270;2024-03-23T05:12:29;8.48;;;4.95;;
801;SDS011;383;48.766;9.270;2024-03-23T05:14:56;10.55;;;5.03;;
801;SDS011;383;48.766;9.270;2024-03-23T05:17:22;13.47;;;7.10;;
801;SDS011;383;48.766;9.270;2024-03-23T05:19:48;10.60;;;6.50;;
801;SDS011;383;48.766;9.270;2024-03-23T05:22:14;12.37;;;6.27;;
801;SDS011;383;48.766;9.270;2024-03-23T05:24:40;12.40;;;6.05;;
801;SDS011;383;48.766;9.270;2024-03-23T05:27:06;17.47;;;7.17;;
801;SDS011;383;48.766;9.270;2024-03-23T05:29:34;13.40;;;7.03;;
801;SDS011;383;48.766;9.270;2024-03-23T05:32:00;15.48;;;8.40;;
801;SDS011;383;48.766;9.270;2024-03-23T05:34:26;15.98;;;8.45;;
801;SDS011;383;48.766;9.270;2024-03-23T05:36:53;21.63;;;9.30;;
801;SDS011;383;48.766;9.270;2024-03-23T05:39:20;17.38;;;9.52;;
801;SDS011;383;48.766;9.270;2024-03-23T05:41:47;17.58;;;9.20;;
801;SDS011;383;48.766;9.270;2024-03-23T05:44:14;27.42;;;9.30;;
801;SDS011;383;48.766;9.270;2024-03-23T05:46:41;19.95;;;10.40;;
801;SDS011;383;48.766;9.270;2024-03-23T05:49:13;17.63;;;8.52;;
801;SDS011;383;48.766;9.270;2024-03-23T05:51:39;25.30;;;9.83;;
801;SDS011;383;48.766;9.270;2024-03-23T05:54:05;20.80;;;10.82;;
801;SDS011;383;48.766;9.270;2024-03-23T05:56:31;17.33;;;8.43;;
801;SDS011;383;48.766;9.270;2024-03-23T05:58:58;21.58;;;9.75;;
801;SDS011;383;48.766;9.270;2024-03-23T06:01:23;21.20;;;9.90;;
801;SDS011;383;48.766;9.270;2024-03-23T06:03:55;17.10;;;8.35;;
801;SDS011;383;48.766;9.270;2024-03-23T06:06:20;19.85;;;8.25;;
801;SDS011;383;48.766;9.270;2024-03-23T06:08:47;13.73;;;5.20;;
801;SDS011;383;48.766;9.270;2024-03-23T06:11:13;10.03;;;4.93;;
801;SDS011;383;48.766;9.270;2024-03-23T06:13:39;9.20;;;4.93;;
801;SDS011;383;48.766;9.270;2024-03-23T06:16:05;6.33;;;3.37;;
801;SDS011;383;48.766;9.270;2024-03-23T06:18:32;5.53;;;2.95;;
801;SDS011;383;48.766;9.270;2024-03-23T06:20:59;6.97;;;3.47;;
801;SDS011;383;48.766;9.270;2024-03-23T06:23:26;4.63;;;2.70;;
801;SDS011;383;48.766;9.270;2024-03-23T06:25:51;5.03;;;2.93;;
801;SDS011;383;48.766;9.270;2024-03-23T06:28:18;3.90;;;2.35;;
801;SDS011;383;48.766;9.270;2024-03-23T06:30:44;6.78;;;2.80;;
801;SDS011;383;48.766;9.270;2024-03-23T06:33:11;3.92;;;2.30;;
801;SDS011;383;48.766;9.270;2024-03-23T06:35:36;3.00;;;2.13;;
801;SDS011;383;48.766;9.270;2024-03-23T06:38:04;4.85;;;2.25;;
801;SDS011;383;48.766;9.270;2024-03-23T06:40:30;6.15;;;2.13;;
801;SDS011;383;48.766;9.270;2024-03-23T06:42:57;4.45;;;2.25;;
801;SDS011;383;48.766;9.270;2024-03-23T06:45:22;5.43;;;2.57;;
801;SDS011;383;48.766;9.270;2024-03-23T06:47:49;2.67;;;1.85;;
801;SDS011;383;48.766;9.270;2024-03-23T06:50:15;5.60;;;1.97;;
801;SDS011;383;48.766;9.270;2024-03-23T06:52:42;2.25;;;1.50;;
801;SDS011;383;48.766;9.270;2024-03-23T06:55:09;1.87;;;1.10;;
801;SDS011;383;48.766;9.270;2024-03-23T06:57:35;2.00;;;1.80;;
801;SDS011;383;48.766;9.270;2024-03-23T07:00:01;1.50;;;1.40;;
801;SDS011;383;48.766;9.270;2024-03-23T07:02:28;1.90;;;1.13;;
801;SDS011;383;48.766;9.270;2024-03-23T07:04:54;3.70;;;1.53;;
801;SDS011;383;48.766;9.270;2024-03-23T07:07:21;1.88;;;1.00;;
801;SDS011;383;48.766;9.270;2024-03-23T07:09:47;2.35;;;1.15;;
801;SDS011;383;48.766;9.270;2024-03-23T07:12:15;2.42;;;1.38;;
801;SDS011;383;48.766;9.270;2024-03-23T07:14:41;1.45;;;0.90;;
801;SDS011;383;48.766;9.270;2024-03-23T07:17:07;1.80;;;1.05;;
801;SDS011;383;48.766;9.270;2024-03-23T07:19:33;2.40;;;0.83;;
801;SDS011;383;48.766;9.270;2024-03-23T07:21:59;1.00;;;0.95;;
801;SDS011;383;48.766;9.270;2024-03-23T07:24:25;1.03;;;0.73;;
801;SDS011;383;48.766;9.270;2024-03-23T07:26:52;0.80;;;0.70;;
801;SDS011;383;48.766;9.270;2024-03-23T07:29:20;1.98;;;1.20;;
801;SDS011;383;48.766;9.270;2024-03-23T07:31:48;2.10;;;1.33;;
801;SDS011;383;48.766;9.270;2024-03-23T07:34:13;1.00;;;0.80;;
801;SDS011;383;48.766;9.270;2024-03-23T07:36:40;2.97;;;0.70;;
801;SDS011;383;48.766;9.270;2024-03-23T07:39:06;0.83;;;0.77;;
801;SDS011;383;48.766;9.270;2024-03-23T07:41:33;0.80;;;0.73;;
801;SDS011;383;48.766;9.270;2024-03-23T07:43:58;0.93;;;0.87;;
801;SDS011;383;48.766;9.270;2024-03-23T07:46:26;0.75;;;0.70;;
801;SDS011;383;48.766;9.270;2024-03-23T07:48:52;0.90;;;0.80;;
801;SDS011;383;48.766;9.270;2024-03-23T07:51:20;0.93;;;0.90;;
801;SDS011;383;48.766;9.270;2024-03-23T07:53:46;1.45;;;1.00;;
801;SDS011;383;48.766;9.270;2024-03-23T07:56:14;1.15;;;1.10;;
801;SDS011;383;48.766;9.270;2024-03-23T07:58:40;0.90;;;0.80;;
801;SDS011;383;48.766;9.270;2024-03-23T08:01:08;1.10;;;1.00;;
801;SDS011;383;48.766;9.270;2024-03-23T08:03:35;4.85;;;2.72;;
801;SDS011;383;48.766;9.270;2024-03-23T08:06:06;1.92;;;1.73;;
801;SDS011;383;48.766;9.270;2024-03-23T08:08:33;8.98;;;3.50;;
801;SDS011;383;48.766;9.270;2024-03-23T08:11:00;2.00;;;1.10;;
801;SDS011;383;48.766;9.270;2024-03-23T08:13:26;1.33;;;1.23;;
801;SDS011;383;48.766;9.270;2024-03-23T08:15:55;2.35;;;1.70;;
801;SDS011;383;48.766;9.270;2024-03-23T08:18:22;1.33;;;0.90;;
801;SDS011;383;48.766;9.270;2024-03-23T08:20:56;2.22;;;2.10;;
801;SDS011;383;48.766;9.270;2024-03-23T08:23:22;1.00;;;0.90;;
801;SDS011;383;48.766;9.270;2024-03-23T08:25:49;1.63;;;1.30;;
801;SDS011;383;48.766;9.270;2024-03-23T08:28:14;2.87;;;2.37;;
801;SDS011;383;48.766;9.270;2024-03-23T08:30:42;1.15;;;1.08;;
801;SDS011;383;48.766;9.270;2024-03-23T08:33:07;1.57;;;1.33;;
801;SDS011;383;48.766;9.270;2024-03-23T08:35:34;1.48;;;1.27;;
801;SDS011;383;48.766;9.270;2024-03-23T08:38:01;1.20;;;1.10;;
801;SDS011;383;48.766;9.270;2024-03-23T08:40:27;1.05;;;1.05;;
801;SDS011;383;48.766;9.270;2024-03-23T08:42:53;1.67;;;1.20;;
801;SDS011;383;48.766;9.270;2024-03-23T08:45:20;1.73;;;1.25;;
801;SDS011;383;48.766;9.270;2024-03-23T08:47:45;2.73;;;0.97;;
801;SDS011;383;48.766;9.270;2024-03-23T08:50:12;0.98;;;0.93;;
801;SDS011;383;48.766;9.270;2024-03-23T08:52:38;0.90;;;0.80;;
801;SDS011;383;48.766;9.270;2024-03-23T08:55:06;0.80;;;0.70;;
801;SDS011;383;48.766;9.270;2024-03-23T08:57:33;1.02;;;0.98;;
801;SDS011;383;48.766;9.270;2024-03-23T09:00:00;1.40;;;1.30;;
801;SDS011;383;48.766;9.270;2024-03-23T09:02:26;1.47;;;1.47;;
801;SDS011;383;48.766;9.270;2024-03-23T09:04:52;1.08;;;0.98;;
801;SDS011;383;48.766;9.270;2024-03-23T09:07:18;5.33;;;1.93;;
801;SDS011;383;48.766;9.270;2024-03-23T09:09:45;3.85;;;1.83;;
801;SDS011;383;48.766;9.270;2024-03-23T09:12:12;4.00;;;1.90;;
801;SDS011;383;48.766;9.270;2024-03-23T09:14:39;4.88;;;1.70;;
801;SDS011;383;48.766;9.270;2024-03-23T09:17:04;2.70;;;1.70;;
801;SDS011;383;48.766;9.270;2024-03-23T09:19:31;6.10;;;1.50;;
801;SDS011;383;48.766;9.270;2024-03-23T09:21:57;5.80;;;2.00;;
801;SDS011;383;48.766;9.270;2024-03-23T09:24:24;16.77;;;2.22;;
801;SDS011;383;48.766;9.270;2024-03-23T09:26:51;2.93;;;2.50;;
801;SDS011;383;48.766;9.270;2024-03-23T09:29:19;4.72;;;2.28;;
801;SDS011;383;48.766;9.270;2024-03-23T09:31:45;9.55;;;1.88;;
801;SDS011;383;48.766;9.270;2024-03-23T09:34:11;2.95;;;1.58;;
801;SDS011;383;48.766;9.270;2024-03-23T09:36:37;3.10;;;1.83;;
801;SDS011;383;48.766;9.270;2024-03-23T09:39:04;5.10;;;2.10;;
801;SDS011;383;48.766;9.270;2024-03-23T09:41:30;6.95;;;3.22;;
801;SDS011;383;48.766;9.270;2024-03-23T09:43:57;5.25;;;2.70;;
801;SDS011;383;48.766;9.270;2024-03-23T09:46:24;3.37;;;1.70;;
801;SDS011;383;48.766;9.270;2024-03-23T09:48:51;2.78;;;1.83;;
801;SDS011;383;48.766;9.270;2024-03-23T09:51:16;6.30;;;2.30;;
801;SDS011;383;48.766;9.270;2024-03-23T09:53:43;14.38;;;2.75;;
801;SDS011;383;48.766;9.270;2024-03-23T09:56:09;9.50;;;2.30;;
801;SDS011;383;48.766;9.270;2024-03-23T09:58:36;3.15;;;2.10;;
801;SDS011;383;48.766;9.270;2024-03-23T10:01:01;4.47;;;2.03;;
801;SDS011;383;48.766;9.270;2024-03-23T10:03:31;6.15;;;2.78;;
801;SDS011;383;48.766;9.270;2024-03-23T10:06:00;7.97;;;2.88;;
801;SDS011;383;48.766;9.270;2024-03-23T10:08:28;11.07;;;2.97;;
801;SDS011;383;48.766;9.270;2024-03-23T10:10:54;5.75;;;2.20;;
801;SDS011;383;48.766;9.270;2024-03-23T10:13:24;15.68;;;3.50;;
801;SDS011;383;48.766;9.270;2024-03-23T10:15:54;7.78;;;2.88;;
801;SDS011;383;48.766;9.270;2024-03-23T10:18:23;4.45;;;2.42;;
801;SDS011;383;48.766;9.270;2024-03-23T10:20:52;9.23;;;2.90;;
801;SDS011;383;48.766;9.270;2024-03-23T10:23:33;9.05;;;2.78;;
801;SDS011;383;48.766;9.270;2024-03-23T10:26:12;9.80;;;3.28;;
801;SDS011;383;48.766;9.270;2024-03-23T10:28:43;11.82;;;3.47;;
801;SDS011;383;48.766;9.270;2024-03-23T10:31:22;7.20;;;2.50;;
801;SDS011;383;48.766;9.270;2024-03-23T10:33:48;5.70;;;2.60;;
801;SDS011;383;48.766;9.270;2024-03-23T10:36:16;5.40;;;2.47;;
801;SDS011;383;48.766;9.270;2024-03-23T10:38:45;5.10;;;3.00;;
801;SDS011;383;48.766;9.270;2024-03-23T10:41:12;7.35;;;2.78;;
801;SDS011;383;48.766;9.270;2024-03-23T10:43:39;8.50;;;3.00;;
801;SDS011;383;48.766;9.270;2024-03-23T10:46:06;3.83;;;2.50;;
801;SDS011;383;48.766;9.270;2024-03-23T10:48:32;5.63;;;2.73;;
801;SDS011;383;48.766;9.270;2024-03-23T10:50:59;6.30;;;2.50;;
801;SDS011;383;48.766;9.270;2024-03-23T10:53:27;11.57;;;3.10;;
801;SDS011;383;48.766;9.270;2024-03-23T10:56:03;6.28;;;2.70;;
801;SDS011;383;48.766;9.270;2024-03-23T10:58:31;8.05;;;2.75;;
801;SDS011;383;48.766;9.270;2024-03-23T11:01:01;7.70;;;3.60;;
801;SDS011;383;48.766;9.270;2024-03-23T11:03:34;8.70;;;3.92;;
801;SDS011;383;48.766;9.270;2024-03-23T11:06:02;10.65;;;2.50;;
801;SDS011;383;48.766;9.270;2024-03-23T11:08:33;5.10;;;2.50;;
801;SDS011;383;48.766;9.270;2024-03-23T11:11:11;7.07;;;3.22;;
801;SDS011;383;48.766;9.270;2024-03-23T11:13:37;6.82;;;3.15;;
801;SDS011;383;48.766;9.270;2024-03-23T11:16:12;4.82;;;3.50;;
801;SDS011;383;48.766;9.270;2024-03-23T11:18:38;4.22;;;2.20;;
801;SDS011;383;48.766;9.270;2024-03-23T11:21:06;3.53;;;2.45;;
801;SDS011;383;48.766;9.270;2024-03-23T11:23:33;3.60;;;2.28;;
801;SDS011;383;48.766;9.270;2024-03-23T11:26:00;2.53;;;1.80;;
801;SDS011;383;48.766;9.270;2024-03-23T11:28:25;3.97;;;2.10;;
801;SDS011;383;48.766;9.270;2024-03-23T11:30:52;4.85;;;2.17;;
801;SDS011;383;48.766;9.270;2024-03-23T11:33:18;3.00;;;1.63;;
801;SDS011;383;48.766;9.270;2024-03-23T11:35:45;3.30;;;1.80;;
801;SDS011;383;48.766;9.270;2024-03-23T11:38:11;3.97;;;1.27;;
801;SDS011;383;48.766;9.270;2024-03-23T11:40:40;7.10;;;1.90;;
801;SDS011;383;48.766;9.270;2024-03-23T11:43:07;3.17;;;2.08;;
801;SDS011;383;48.766;9.270;2024-03-23T11:45:37;3.65;;;2.45;;
801;SDS011;383;48.766;9.270;2024-03-23T11:48:05;2.53;;;2.30;;
801;SDS011;383;48.766;9.270;2024-03-23T11:50:33;8.02;;;2.00;;
801;SDS011;383;48.766;9.270;2024-03-23T11:53:12;7.88;;;2.00;;
801;SDS011;383;48.766;9.270;2024-03-23T11:55:45;3.92;;;2.30;;
801;SDS011;383;48.766;9.270;2024-03-23T11:58:12;4.30;;;2.30;;
801;SDS011;383;48.766;9.270;2024-03-23T12:00:39;9.10;;;3.58;;
801;SDS011;383;48.766;9.270;2024-03-23T12:03:05;3.90;;;2.40;;
801;SDS011;383;48.766;9.270;2024-03-23T12:05:32;3.22;;;2.00;;
801;SDS011;383;48.766;9.270;2024-03-23T12:08:15;3.85;;;2.20;;
801;SDS011;383;48.766;9.270;2024-03-23T12:10:47;5.30;;;1.52;;
801;SDS011;383;48.766;9.270;2024-03-23T12:13:17;4.25;;;2.10;;
801;SDS011;383;48.766;9.270;2024-03-23T12:15:45;4.50;;;1.65;;
801;SDS011;383;48.766;9.270;2024-03-23T12:18:12;10.25;;;2.20;;
801;SDS011;383;48.766;9.270;2024-03-23T12:20:39;9.00;;;3.67;;
801;SDS011;383;48.766;9.270;2024-03-23T12:23:05;6.07;;;1.60;;
801;SDS011;383;48.766;9.270;2024-03-23T12:25:32;2.30;;;1.88;;
801;SDS011;383;48.766;9.270;2024-03-23T12:28:00;3.85;;;2.05;;
801;SDS011;383;48.766;9.270;2024-03-23T12:30:27;8.45;;;2.67;;
801;SDS011;383;48.766;9.270;2024-03-23T12:32:53;4.33;;;1.63;;
801;SDS011;383;48.766;9.270;2024-03-23T12:35:19;3.25;;;2.03;;
801;SDS011;383;48.766;9.270;2024-03-23T12:37:45;5.93;;;1.83;;
801;SDS011;383;48.766;9.270;2024-03-23T12:40:12;3.53;;;1.63;;
801;SDS011;383;48.766;9.270;2024-03-23T12:42:38;11.63;;;2.40;;
801;SDS011;383;48.766;9.270;2024-03-23T12:45:06;7.78;;;1.83;;
801;SDS011;383;48.766;9.270;2024-03-23T12:47:33;3.55;;;1.45;;
801;SDS011;383;48.766;9.270;2024-03-23T12:49:59;7.90;;;1.60;;
801;SDS011;383;48.766;9.270;2024-03-23T12:52:25;11.40;;;2.07;;
801;SDS011;383;48.766;9.270;2024-03-23T12:54:53;3.08;;;1.60;;
801;SDS011;383;48.766;9.270;2024-03-23T12:57:21;9.13;;;2.50;;
801;SDS011;383;48.766;9.270;2024-03-23T12:59:48;9.70;;;1.70;;
801;SDS011;383;48.766;9.270;2024-03-23T13:02:17;6.78;;;1.92;;
801;SDS011;383;48.766;9.270;2024-03-23T13:04:45;8.95;;;1.80;;
801;SDS011;383;48.766;9.270;2024-03-23T13:07:11;10.02;;;2.55;;
801;SDS011;383;48.766;9.270;2024-03-23T13:09:38;3.17;;;1.67;;
801;SDS011;383;48.766;9.270;2024-03-23T13:12:04;8.57;;;2.20;;
801;SDS011;383;48.766;9.270;2024-03-23T13:14:31;5.53;;;1.92;;
801;SDS011;383;48.766;9.270;2024-03-23T13:16:58;3.70;;;2.35;;
801;SDS011;383;48.766;9.270;2024-03-23T13:19:26;6.57;;;2.13;;
801;SDS011;383;48.766;9.270;2024-03-23T13:21:55;10.45;;;2.55;;
801;SDS011;383;48.766;9.270;2024-03-23T13:24:22;4.70;;;2.60;;
801;SDS011;383;48.766;9.270;2024-03-23T13:26:49;7.03;;;2.33;;
801;SDS011;383;48.766;9.270;2024-03-23T13:29:15;11.18;;;2.30;;
801;SDS011;383;48.766;9.270;2024-03-23T13:31:42;3.65;;;2.10;;
801;SDS011;383;48.766;9.270;2024-03-23T13:34:08;2.70;;;2.00;;
801;SDS011;383;48.766;9.270;2024-03-23T13:36:36;9.90;;;3.05;;
801;SDS011;383;48.766;9.270;2024-03-23T13:39:02;13.38;;;2.70;;
801;SDS011;383;48.766;9.270;2024-03-23T13:41:31;6.28;;;1.98;;
801;SDS011;383;48.766;9.270;2024-03-23T13:43:58;3.20;;;1.65;;
801;SDS011;383;48.766;9.270;2024-03-23T13:46:23;6.90;;;1.70;;
801;SDS011;383;48.766;9.270;2024-03-23T13:48:50;1.95;;;1.50;;
801;SDS011;383;48.766;9.270;2024-03-23T13:51:16;2.97;;;1.50;;
801;SDS011;383;48.766;9.270;2024-03-23T13:53:51;3.20;;;1.10;;
801;SDS011;383;48.766;9.270;2024-03-23T13:56:17;2.67;;;1.35;;
801;SDS011;383;48.766;9.270;2024-03-23T13:58:44;7.17;;;1.67;;
801;SDS011;383;48.766;9.270;2024-03-23T14:01:12;3.90;;;1.60;;
801;SDS011;383;48.766;9.270;2024-03-23T14:03:39;1.50;;;1.40;;
801;SDS011;383;48.766;9.270;2024-03-23T14:06:05;3.93;;;1.30;;
801;SDS011;383;48.766;9.270;2024-03-23T14:08:32;3.15;;;1.40;;
801;SDS011;383;48.766;9.270;2024-03-23T14:11:02;3.60;;;1.33;;
801;SDS011;383;48.766;9.270;2024-03-23T14:13:29;3.55;;;1.27;;
801;SDS011;383;48.766;9.270;2024-03-23T14:15:55;6.28;;;1.58;;
801;SDS011;383;48.766;9.270;2024-03-23T14:18:22;3.63;;;1.35;;
801;SDS011;383;48.766;9.270;2024-03-23T14:20:48;3.10;;;1.70;;
801;SDS011;383;48.766;9.270;2024-03-23T14:23:15;2.40;;;1.30;;
801;SDS011;383;48.766;9.270;2024-03-23T14:25:40;5.10;;;1.87;;
801;SDS011;383;48.766;9.270;2024-03-23T14:28:08;2.95;;;1.65;;
801;SDS011;383;48.766;9.270;2024-03-23T14:30:39;2.60;;;1.73;;
801;SDS011;383;48.766;9.270;2024-03-23T14:33:06;4.90;;;1.20;;
801;SDS011;383;48.766;9.270;2024-03-23T14:35:32;1.57;;;1.00;;
801;SDS011;383;48.766;9.270;2024-03-23T14:37:59;3.80;;;1.30;;
801;SDS011;383;48.766;9.270;2024-03-23T14:40:24;1.53;;;1.50;;
801;SDS011;383;48.766;9.270;2024-03-23T14:42:52;0.95;;;0.85;;
801;SDS011;383;48.766;9.270;2024-03-23T14:45:19;2.50;;;1.30;;
801;SDS011;383;48.766;9.270;2024-03-23T14:47:47;2.95;;;1.40;;
801;SDS011;383;48.766;9.270;2024-03-23T14:50:13;5.07;;;1.43;;
801;SDS011;383;48.766;9.270;2024-03-23T14:52:40;3.08;;;1.25;;
801;SDS011;383;48.766;9.270;2024-03-23T14:55:07;2.03;;;1.42;;
801;SDS011;383;48.766;9.270;2024-03-23T14:57:34;1.98;;;1.40;;
801;SDS011;383;48.766;9.270;2024-03-23T15:00:00;1.37;;;1.10;;
801;SDS011;383;48.766;9.270;2024-03-23T15:02:31;1.02;;;1.00;;
801;SDS011;383;48.766;9.270;2024-03-23T15:04:57;3.85;;;1.40;;
801;SDS011;383;48.766;9.270;2024-03-23T15:07:24;2.42;;;1.67;;
801;SDS011;383;48.766;9.270;2024-03-23T15:09:50;1.50;;;1.40;;
801;SDS011;383;48.766;9.270;2024-03-23T15:12:16;1.52;;;1.00;;
801;SDS011;383;48.766;9.270;2024-03-23T15:14:42;2.17;;;1.57;;
801;SDS011;383;48.766;9.270;2024-03-23T15:17:09;10.07;;;1.55;;
801;SDS011;383;48.766;9.270;2024-03-23T15:19:36;2.33;;;2.13;;
801;SDS011;383;48.766;9.270;2024-03-23T15:22:02;1.85;;;1.45;;
801;SDS011;383;48.766;9.270;2024-03-23T15:24:28;1.75;;;1.65;;
801;SDS011;383;48.766;9.270;2024-03-23T15:26:56;5.22;;;1.92;;
801;SDS011;383;48.766;9.270;2024-03-23T15:29:22;1.33;;;1.23;;
801;SDS011;383;48.766;9.270;2024-03-23T15:31:49;6.82;;;1.80;;
801;SDS011;383;48.766;9.270;2024-03-23T15:34:17;2.65;;;1.20;;
801;SDS011;383;48.766;9.270;2024-03-23T15:36:48;6.95;;;2.60;;
801;SDS011;383;48.766;9.270;2024-03-23T15:39:15;3.45;;;1.48;;
801;SDS011;383;48.766;9.270;2024-03-23T15:41:43;1.33;;;1.23;;
801;SDS011;383;48.766;9.270;2024-03-23T15:44:09;1.30;;;0.90;;
801;SDS011;383;48.766;9.270;2024-03-23T15:46:36;5.22;;;1.40;;
801;SDS011;383;48.766;9.270;2024-03-23T15:49:02;2.00;;;1.20;;
801;SDS011;383;48.766;9.270;2024-03-23T15:51:29;3.17;;;1.23;;
801;SDS011;383;48.766;9.270;2024-03-23T15:53:58;1.95;;;1.42;;
801;SDS011;383;48.766;9.270;2024-03-23T15:56:25;2.63;;;0.93;;
801;SDS011;383;48.766;9.270;2024-03-23T15:58:51;4.43;;;1.20;;
801;SDS011;383;48.766;9.270;2024-03-23T16:01:17;5.57;;;1.50;;
801;SDS011;383;48.766;9.270;2024-03-23T16:03:43;1.83;;;1.20;;
801;SDS011;383;48.766;9.270;2024-03-23T16:06:10;1.35;;;1.20;;
801;SDS011;383;48.766;9.270;2024-03-23T16:08:36;3.33;;;1.50;;
801;SDS011;383;48.766;9.270;2024-03-23T16:11:05;1.65;;;1.33;;
801;SDS011;383;48.766;9.270;2024-03-23T16:13:32;2.70;;;1.50;;
801;SDS011;383;48.766;9.270;2024-03-23T16:15:59;6.95;;;1.40;;
801;SDS011;383;48.766;9.270;2024-03-23T16:18:26;7.60;;;1.85;;
801;SDS011;383;48.766;9.270;2024-03-23T16:20:53;10.60;;;2.00;;
801;SDS011;383;48.766;9.270;2024-03-23T16:23:19;2.83;;;1.60;;
801;SDS011;383;48.766;9.270;2024-03-23T16:25:46;3.20;;;1.75;;
801;SDS011;383;48.766;9.270;2024-03-23T16:28:15;2.67;;;1.30;;
801;SDS011;383;48.766;9.270;2024-03-23T16:30:42;7.50;;;1.63;;
801;SDS011;383;48.766;9.270;2024-03-23T16:33:08;1.53;;;1.10;;
801;SDS011;383;48.766;9.270;2024-03-23T16:35:34;5.17;;;1.03;;